Time;durP1;ratioP1;P1;durP2;ratioP2;P2;SDS_P1;SDS_P2;PMS_P1;PMS_P2;Temp;Humidity;BMP_temperature;BMP_pressure;BME280_temperature;BME280_humidity;BME280_pressure;Samples;Min_cycle;Max_cycle;Signal;HPM_P1;HPM_P2
2022/06/15 00:01:32;;;;;;;2.58;2.10;;;;;;;;;;5056847;28;20863;-90
2022/06/15 00:04:00;;;;;;;3.80;2.00;;;;;;;;;;5057049;28;20384;-89
2022/06/15 00:06:28;;;;;;;2.73;1.90;;;;;;;;;;5058000;28;20373;-88
2022/06/15 00:08:55;;;;;;;2.33;1.97;;;;;;;;;;5056910;28;20388;-90
2022/06/15 00:11:23;;;;;;;3.95;2.15;;;;;;;;;;5047765;28;20843;-89
2022/06/15 00:13:49;;;;;;;3.00;2.10;;;;;;;;;;5056993;28;20467;-89
2022/06/15 00:16:16;;;;;;;3.65;2.10;;;;;;;;;;5057023;28;20412;-90
2022/06/15 00:18:44;;;;;;;2.85;1.98;;;;;;;;;;5057223;28;20378;-91
2022/06/15 00:21:10;;;;;;;2.85;2.00;;;;;;;;;;5056891;28;20465;-90
2022/06/15 00:23:37;;;;;;;2.13;1.88;;;;;;;;;;5056776;28;20374;-90
2022/06/15 00:26:04;;;;;;;3.92;2.30;;;;;;;;;;5042730;28;20429;-89
2022/06/15 00:28:30;;;;;;;2.70;1.90;;;;;;;;;;5056566;28;20716;-89
2022/06/15 00:30:56;;;;;;;2.45;1.98;;;;;;;;;;5054679;28;20386;-89
2022/06/15 00:33:23;;;;;;;2.40;2.17;;;;;;;;;;5041019;28;20401;-90
2022/06/15 00:35:59;;;;;;;2.85;2.22;;;;;;;;;;5050013;28;20383;-90
2022/06/15 00:38:28;;;;;;;2.83;2.10;;;;;;;;;;5053910;28;20430;-89
2022/06/15 00:40:54;;;;;;;2.55;1.98;;;;;;;;;;5055975;28;20373;-89
2022/06/15 00:43:35;;;;;;;2.87;1.97;;;;;;;;;;5056220;28;20417;-89
2022/06/15 00:46:02;;;;;;;2.90;2.10;;;;;;;;;;5055783;28;20386;-89
2022/06/15 00:48:28;;;;;;;3.40;2.40;;;;;;;;;;5053654;28;20398;-89
2022/06/15 00:50:54;;;;;;;2.97;2.33;;;;;;;;;;5055943;28;20452;-88
2022/06/15 00:53:20;;;;;;;3.15;2.30;;;;;;;;;;5056760;28;20401;-89
2022/06/15 00:55:47;;;;;;;2.20;2.00;;;;;;;;;;5055633;28;20381;-89
2022/06/15 00:58:15;;;;;;;2.97;2.40;;;;;;;;;;5055170;28;20389;-89
2022/06/15 01:00:41;;;;;;;2.88;2.42;;;;;;;;;;5055275;28;20377;-89
2022/06/15 01:03:10;;;;;;;2.70;2.15;;;;;;;;;;5054971;28;20785;-89
2022/06/15 01:05:52;;;;;;;2.38;2.08;;;;;;;;;;5054887;28;20404;-89
2022/06/15 01:08:25;;;;;;;2.30;2.10;;;;;;;;;;5054747;28;20380;-89
2022/06/15 01:11:10;;;;;;;2.73;2.47;;;;;;;;;;5054900;28;20918;-89
2022/06/15 01:13:36;;;;;;;2.90;2.30;;;;;;;;;;5044875;28;20406;-89
2022/06/15 01:16:08;;;;;;;3.22;2.50;;;;;;;;;;5050705;28;20431;-89
2022/06/15 01:18:33;;;;;;;2.60;2.40;;;;;;;;;;5054756;28;20385;-90
2022/06/15 01:21:03;;;;;;;3.07;2.40;;;;;;;;;;5054672;28;20940;-89
2022/06/15 01:23:44;;;;;;;2.20;2.00;;;;;;;;;;5054376;28;20381;-90
2022/06/15 01:26:20;;;;;;;3.55;2.30;;;;;;;;;;5053132;28;20428;-89
2022/06/15 01:28:46;;;;;;;2.55;2.30;;;;;;;;;;5054363;28;20381;-89
2022/06/15 01:31:15;;;;;;;3.03;2.72;;;;;;;;;;5037734;28;20895;-89
2022/06/15 01:33:48;;;;;;;2.53;2.20;;;;;;;;;;5041679;28;20464;-90
2022/06/15 01:36:20;;;;;;;3.08;2.40;;;;;;;;;;5045512;28;20888;-90
2022/06/15 01:38:52;;;;;;;2.92;2.58;;;;;;;;;;5054383;28;20369;-89
2022/06/15 01:41:28;;;;;;;2.50;2.30;;;;;;;;;;5052799;28;20370;-89
2022/06/15 01:44:00;;;;;;;2.50;2.30;;;;;;;;;;5053986;28;20365;-89
2022/06/15 01:46:27;;;;;;;2.83;2.20;;;;;;;;;;5041653;28;20860;-88
2022/06/15 01:48:55;;;;;;;3.88;2.40;;;;;;;;;;5038662;28;20389;-89
2022/06/15 01:51:28;;;;;;;2.97;2.30;;;;;;;;;;5030208;28;20371;-89
2022/06/15 01:54:04;;;;;;;2.38;2.08;;;;;;;;;;5024065;28;20389;-88
2022/06/15 01:56:44;;;;;;;3.47;2.35;;;;;;;;;;5034505;28;20855;-87
2022/06/15 01:59:25;;;;;;;3.38;2.50;;;;;;;;;;5052744;28;20385;-89
2022/06/15 02:02:01;;;;;;;2.30;2.10;;;;;;;;;;5052355;28;20389;-88
2022/06/15 02:04:29;;;;;;;2.28;2.08;;;;;;;;;;5053714;28;20381;-89
2022/06/15 02:07:05;;;;;;;2.47;2.28;;;;;;;;;;5043721;28;20395;-90
2022/06/15 02:09:40;;;;;;;2.40;2.00;;;;;;;;;;5050516;28;20442;-89
2022/06/15 02:12:07;;;;;;;3.03;2.45;;;;;;;;;;5053354;28;20416;-90
2022/06/15 02:14:40;;;;;;;2.42;2.20;;;;;;;;;;5053460;28;20389;-88
2022/06/15 02:17:09;;;;;;;2.10;1.95;;;;;;;;;;5052498;28;20382;-88
2022/06/15 02:19:44;;;;;;;2.72;2.53;;;;;;;;;;5039762;28;20389;-88
2022/06/15 02:22:12;;;;;;;3.40;2.30;;;;;;;;;;5053546;28;20381;-89
2022/06/15 02:24:39;;;;;;;2.42;2.22;;;;;;;;;;5053129;28;20385;-88
2022/06/15 02:27:06;;;;;;;2.55;2.13;;;;;;;;;;5053418;28;20535;-89
2022/06/15 02:29:34;;;;;;;3.28;2.35;;;;;;;;;;5052242;28;20450;-89
2022/06/15 02:32:00;;;;;;;3.10;2.30;;;;;;;;;;5053537;28;20401;-89
2022/06/15 02:34:27;;;;;;;2.67;2.20;;;;;;;;;;5053950;28;20397;-88
2022/06/15 02:36:53;;;;;;;2.53;2.28;;;;;;;;;;5044792;28;20413;-88
2022/06/15 02:39:20;;;;;;;2.60;2.40;;;;;;;;;;5053159;28;20412;-88
2022/06/15 02:41:46;;;;;;;2.95;2.42;;;;;;;;;;5053497;28;20382;-87
2022/06/15 02:44:13;;;;;;;2.92;2.40;;;;;;;;;;5053174;28;20373;-88
2022/06/15 02:46:42;;;;;;;2.50;2.30;;;;;;;;;;5052848;28;20377;-89
2022/06/15 02:49:08;;;;;;;2.78;2.55;;;;;;;;;;5053021;28;20373;-88
2022/06/15 02:51:53;;;;;;;5.25;2.60;;;;;;;;;;5052920;28;20392;-89
2022/06/15 02:54:32;;;;;;;3.05;2.47;;;;;;;;;;5052804;28;20369;-88
2022/06/15 02:56:58;;;;;;;3.10;2.33;;;;;;;;;;5052919;28;20465;-88
2022/06/15 02:59:24;;;;;;;2.58;2.30;;;;;;;;;;5052633;28;20389;-89
2022/06/15 03:01:50;;;;;;;2.75;2.30;;;;;;;;;;5052915;28;20392;-88
2022/06/15 03:04:16;;;;;;;3.25;2.50;;;;;;;;;;5052815;28;20381;-89
2022/06/15 03:06:42;;;;;;;2.63;2.30;;;;;;;;;;5052696;28;20752;-88
2022/06/15 03:09:08;;;;;;;3.33;2.65;;;;;;;;;;5052428;28;20389;-88
2022/06/15 03:11:34;;;;;;;2.88;2.67;;;;;;;;;;5052382;28;20417;-89
2022/06/15 03:14:00;;;;;;;2.85;2.63;;;;;;;;;;5052714;28;20439;-89
2022/06/15 03:16:27;;;;;;;2.90;2.70;;;;;;;;;;5047287;28;20375;-89
2022/06/15 03:18:53;;;;;;;4.05;2.90;;;;;;;;;;5046770;28;20392;-88
2022/06/15 03:21:19;;;;;;;4.22;3.10;;;;;;;;;;5056718;28;20385;-88
2022/06/15 03:23:46;;;;;;;3.05;2.75;;;;;;;;;;5056924;28;20377;-89
2022/06/15 03:26:12;;;;;;;3.03;2.65;;;;;;;;;;5056622;28;20735;-89
2022/06/15 03:28:38;;;;;;;3.15;2.85;;;;;;;;;;5056797;28;20388;-88
2022/06/15 03:31:04;;;;;;;3.65;2.80;;;;;;;;;;5040424;28;20386;-90
2022/06/15 03:33:30;;;;;;;4.35;2.75;;;;;;;;;;5041843;28;20401;-89
2022/06/15 03:35:57;;;;;;;3.00;2.70;;;;;;;;;;5050149;28;20728;-90
2022/06/15 03:38:23;;;;;;;3.15;2.85;;;;;;;;;;5039743;28;20384;-89
2022/06/15 03:40:50;;;;;;;3.13;2.80;;;;;;;;;;5038772;28;20398;-89
2022/06/15 03:43:17;;;;;;;3.25;2.95;;;;;;;;;;5033993;28;20385;-89
2022/06/15 03:45:43;;;;;;;3.30;3.00;;;;;;;;;;5035471;28;20383;-88
2022/06/15 03:48:10;;;;;;;3.58;2.60;;;;;;;;;;5037810;28;20394;-89
2022/06/15 03:50:37;;;;;;;4.53;2.90;;;;;;;;;;5036089;28;20431;-89
2022/06/15 03:53:04;;;;;;;2.90;2.70;;;;;;;;;;5056391;28;20428;-89
2022/06/15 03:55:30;;;;;;;2.70;2.50;;;;;;;;;;5054295;28;20427;-89
2022/06/15 03:57:56;;;;;;;7.13;2.58;;;;;;;;;;5035943;28;20403;-88
2022/06/15 04:00:23;;;;;;;4.18;2.90;;;;;;;;;;5025999;28;20404;-89
2022/06/15 04:02:49;;;;;;;3.35;2.75;;;;;;;;;;5054869;28;20408;-88
2022/06/15 04:05:17;;;;;;;3.53;2.77;;;;;;;;;;5055921;28;20405;-89
2022/06/15 04:10:28;;;;;;;3.23;2.60;;;;;;;;;;5027472;28;20495;-89
2022/06/15 04:12:54;;;;;;;3.00;2.70;;;;;;;;;;5029853;28;20413;-88
2022/06/15 04:15:20;;;;;;;4.70;2.88;;;;;;;;;;5031180;28;20441;-89
2022/06/15 04:17:46;;;;;;;4.22;2.92;;;;;;;;;;5037883;28;20382;-89
2022/06/15 04:20:32;;;;;;;3.17;2.87;;;;;;;;;;5054565;28;20378;-88
2022/06/15 04:22:58;;;;;;;5.00;3.33;;;;;;;;;;5040735;28;20413;-88
2022/06/15 04:25:24;;;;;;;3.55;3.25;;;;;;;;;;5054639;28;20416;-88
2022/06/15 04:27:50;;;;;;;3.00;2.63;;;;;;;;;;5055535;28;20507;-88
2022/06/15 04:30:16;;;;;;;3.83;3.00;;;;;;;;;;5054409;28;20424;-89
2022/06/15 04:32:42;;;;;;;6.13;3.08;;;;;;;;;;5055657;28;20879;-89
2022/06/15 04:35:09;;;;;;;3.85;3.03;;;;;;;;;;5054022;28;20810;-90
2022/06/15 04:37:37;;;;;;;3.17;2.88;;;;;;;;;;5046755;28;20472;-90
2022/06/15 04:40:03;;;;;;;3.27;2.97;;;;;;;;;;5055370;28;20557;-89
2022/06/15 04:42:29;;;;;;;3.30;3.00;;;;;;;;;;5055314;28;20377;-89
2022/06/15 04:44:55;;;;;;;3.20;2.65;;;;;;;;;;5054952;28;20950;-89
2022/06/15 04:47:21;;;;;;;4.45;3.28;;;;;;;;;;5055922;28;20393;-89
2022/06/15 04:49:47;;;;;;;3.30;3.00;;;;;;;;;;5055475;28;20413;-90
2022/06/15 04:52:13;;;;;;;3.72;3.30;;;;;;;;;;5055337;28;20447;-89
2022/06/15 04:54:39;;;;;;;3.88;2.95;;;;;;;;;;5054266;28;20807;-89
2022/06/15 04:57:05;;;;;;;4.10;3.47;;;;;;;;;;5055102;28;20377;-89
2022/06/15 04:59:31;;;;;;;3.17;2.88;;;;;;;;;;5055294;28;20464;-91
2022/06/15 05:01:58;;;;;;;3.78;2.97;;;;;;;;;;5051126;28;20398;-89
2022/06/15 05:04:25;;;;;;;4.35;2.88;;;;;;;;;;5053182;28;20393;-89
2022/06/15 05:06:51;;;;;;;2.80;2.58;;;;;;;;;;5054702;28;20377;-89
2022/06/15 05:09:18;;;;;;;3.27;2.77;;;;;;;;;;5054927;28;20874;-90
2022/06/15 05:11:44;;;;;;;3.97;3.38;;;;;;;;;;5050001;28;20415;-89
2022/06/15 05:14:10;;;;;;;3.30;2.53;;;;;;;;;;5049523;28;20878;-88
2022/06/15 05:16:36;;;;;;;3.08;2.78;;;;;;;;;;5055003;28;20396;-88
2022/06/15 05:19:03;;;;;;;3.50;2.90;;;;;;;;;;5055190;28;20393;-89
2022/06/15 05:21:35;;;;;;;4.88;2.78;;;;;;;;;;5054752;28;20393;-89
2022/06/15 05:24:01;;;;;;;3.33;2.80;;;;;;;;;;5055347;28;20378;-89
2022/06/15 05:26:27;;;;;;;3.10;2.80;;;;;;;;;;5053606;28;20819;-90
2022/06/15 05:28:53;;;;;;;3.08;2.75;;;;;;;;;;5054950;28;20421;-90
2022/06/15 05:31:21;;;;;;;3.30;2.63;;;;;;;;;;5040506;28;20375;-91
2022/06/15 05:33:53;;;;;;;3.28;2.85;;;;;;;;;;5042632;28;20466;-91
2022/06/15 05:36:19;;;;;;;3.08;2.70;;;;;;;;;;5046013;28;20490;-90
2022/06/15 05:38:45;;;;;;;4.40;2.80;;;;;;;;;;5054520;28;20460;-90
2022/06/15 05:41:11;;;;;;;3.88;2.88;;;;;;;;;;5054657;28;20381;-89
2022/06/15 05:43:41;;;;;;;3.33;2.67;;;;;;;;;;5054519;28;20374;-89
2022/06/15 05:46:13;;;;;;;3.40;2.70;;;;;;;;;;5052269;28;20436;-89
2022/06/15 05:48:39;;;;;;;3.72;2.75;;;;;;;;;;5030515;28;20864;-89
2022/06/15 05:51:05;;;;;;;2.90;2.60;;;;;;;;;;5045573;28;20379;-90
2022/06/15 05:53:31;;;;;;;4.65;2.78;;;;;;;;;;5026382;28;20400;-90
2022/06/15 05:55:57;;;;;;;3.60;2.72;;;;;;;;;;5051889;28;20385;-90
2022/06/15 05:58:23;;;;;;;3.00;2.70;;;;;;;;;;5054078;28;20890;-89
2022/06/15 06:00:49;;;;;;;4.35;2.90;;;;;;;;;;5036583;28;20384;-90
2022/06/15 06:03:16;;;;;;;3.53;2.85;;;;;;;;;;5034974;28;20391;-89
2022/06/15 06:05:42;;;;;;;3.58;2.78;;;;;;;;;;5036183;28;20745;-87
2022/06/15 06:08:08;;;;;;;3.22;2.92;;;;;;;;;;5042089;28;20408;-87
2022/06/15 06:10:37;;;;;;;3.87;2.70;;;;;;;;;;5034455;28;20791;-87
2022/06/15 06:13:03;;;;;;;3.17;2.87;;;;;;;;;;5034714;28;20579;-86
2022/06/15 06:15:30;;;;;;;3.60;2.83;;;;;;;;;;5033438;28;20415;-87
2022/06/15 06:17:56;;;;;;;3.92;3.10;;;;;;;;;;5039685;28;20428;-88
2022/06/15 06:20:22;;;;;;;4.05;3.20;;;;;;;;;;5054342;28;20456;-90
2022/06/15 06:22:48;;;;;;;4.13;3.30;;;;;;;;;;5052614;28;20405;-90
2022/06/15 06:25:14;;;;;;;3.57;3.20;;;;;;;;;;5040708;28;20389;-91
2022/06/15 06:27:40;;;;;;;4.40;3.58;;;;;;;;;;5037396;28;20395;-91
2022/06/15 06:30:06;;;;;;;3.60;2.97;;;;;;;;;;5036614;28;20395;-90
2022/06/15 06:32:33;;;;;;;3.55;2.90;;;;;;;;;;5032195;28;20418;-90
2022/06/15 06:34:59;;;;;;;4.00;3.50;;;;;;;;;;5036133;28;20386;-90
2022/06/15 06:37:25;;;;;;;4.10;3.22;;;;;;;;;;5037385;28;20386;-90
2022/06/15 06:39:54;;;;;;;4.15;3.60;;;;;;;;;;5034679;28;20877;-90
2022/06/15 06:42:20;;;;;;;3.67;3.10;;;;;;;;;;5029921;28;20383;-90
2022/06/15 06:44:46;;;;;;;3.90;2.90;;;;;;;;;;5032405;28;20437;-89
2022/06/15 06:47:12;;;;;;;3.40;2.90;;;;;;;;;;5038160;28;20377;-91
2022/06/15 06:49:38;;;;;;;4.28;3.75;;;;;;;;;;5053464;28;20380;-90
2022/06/15 06:52:04;;;;;;;4.65;4.15;;;;;;;;;;5053121;28;20417;-90
2022/06/15 06:54:31;;;;;;;5.70;4.00;;;;;;;;;;5053307;28;20390;-90
2022/06/15 06:56:58;;;;;;;6.15;4.18;;;;;;;;;;5053434;28;20373;-90
2022/06/15 06:59:24;;;;;;;6.38;5.18;;;;;;;;;;5053265;28;20384;-90
2022/06/15 07:01:50;;;;;;;6.80;6.10;;;;;;;;;;5038975;28;20896;-90
2022/06/15 07:04:17;;;;;;;7.85;6.00;;;;;;;;;;5032424;28;20373;-91
2022/06/15 07:06:43;;;;;;;6.88;5.80;;;;;;;;;;5031291;28;20751;-91
2022/06/15 07:09:09;;;;;;;7.57;5.40;;;;;;;;;;5034939;28;20513;-90
2022/06/15 07:11:35;;;;;;;6.72;5.20;;;;;;;;;;5030400;28;20398;-91
2022/06/15 07:14:01;;;;;;;9.50;6.40;;;;;;;;;;5033127;28;20394;-89
2022/06/15 07:16:27;;;;;;;9.40;7.03;;;;;;;;;;5036833;28;20464;-90
2022/06/15 07:18:54;;;;;;;11.32;6.97;;;;;;;;;;5044804;28;20378;-89
2022/06/15 07:21:22;;;;;;;10.57;6.47;;;;;;;;;;5039362;28;20372;-91
2022/06/15 07:23:49;;;;;;;10.32;6.72;;;;;;;;;;5031767;28;20387;-90
2022/06/15 07:26:18;;;;;;;12.48;7.90;;;;;;;;;;5036418;28;20884;-90
2022/06/15 07:28:47;;;;;;;8.90;6.93;;;;;;;;;;5033804;28;20505;-91
2022/06/15 07:31:24;;;;;;;6.60;5.43;;;;;;;;;;5034646;28;20445;-90
2022/06/15 07:33:50;;;;;;;8.07;5.70;;;;;;;;;;5031212;28;20764;-90
2022/06/15 07:36:16;;;;;;;7.50;6.00;;;;;;;;;;5038319;28;20383;-90
2022/06/15 07:38:42;;;;;;;8.77;6.60;;;;;;;;;;5052790;28;20438;-90
2022/06/15 07:41:08;;;;;;;9.98;6.13;;;;;;;;;;5037801;28;20429;-90
2022/06/15 07:43:35;;;;;;;6.72;5.57;;;;;;;;;;5034430;28;20377;-90
2022/06/15 07:46:04;;;;;;;9.80;5.32;;;;;;;;;;5041526;28;20870;-91
2022/06/15 07:51:33;;;;;;;8.77;5.03;;;;;;;;;;5044494;28;20376;-90
2022/06/15 07:53:59;;;;;;;8.00;5.70;;;;;;;;;;5033160;28;20387;-90
2022/06/15 07:56:25;;;;;;;5.70;5.07;;;;;;;;;;5032093;28;20375;-91
2022/06/15 07:58:51;;;;;;;5.68;4.32;;;;;;;;;;5041920;28;20473;-90
2022/06/15 08:01:17;;;;;;;5.97;4.57;;;;;;;;;;5025106;28;20406;-90
2022/06/15 08:03:44;;;;;;;5.80;4.65;;;;;;;;;;5033394;28;20387;-89
2022/06/15 08:06:10;;;;;;;6.75;4.50;;;;;;;;;;5037504;28;20389;-90
2022/06/15 08:08:36;;;;;;;7.68;5.53;;;;;;;;;;5038675;28;20392;-90
2022/06/15 08:11:02;;;;;;;6.22;5.32;;;;;;;;;;5039414;28;20457;-92
2022/06/15 08:13:29;;;;;;;6.18;5.10;;;;;;;;;;5046046;28;20907;-91
2022/06/15 08:15:55;;;;;;;5.15;3.63;;;;;;;;;;5023816;28;20410;-90
2022/06/15 08:18:22;;;;;;;5.60;4.60;;;;;;;;;;5036889;28;20398;-91
2022/06/15 08:20:52;;;;;;;6.05;5.00;;;;;;;;;;5050295;28;20381;-91
2022/06/15 08:23:20;;;;;;;5.05;4.50;;;;;;;;;;5049463;28;20499;-90
2022/06/15 08:25:48;;;;;;;4.80;3.92;;;;;;;;;;5056964;28;20383;-90
2022/06/15 08:28:15;;;;;;;5.20;3.55;;;;;;;;;;5043657;28;20931;-90
2022/06/15 08:30:41;;;;;;;3.55;2.97;;;;;;;;;;5028599;28;20418;-90
2022/06/15 08:33:08;;;;;;;4.20;3.03;;;;;;;;;;5031051;28;20412;-91
2022/06/15 08:35:38;;;;;;;3.33;2.70;;;;;;;;;;5028950;28;20395;-91
2022/06/15 08:38:06;;;;;;;4.80;3.33;;;;;;;;;;5035200;28;20889;-91
2022/06/15 08:40:35;;;;;;;4.50;3.80;;;;;;;;;;5031081;28;20388;-90
2022/06/15 08:43:16;;;;;;;3.65;3.03;;;;;;;;;;5036216;28;20441;-91
2022/06/15 08:45:46;;;;;;;4.03;2.72;;;;;;;;;;5041086;28;20410;-90
2022/06/15 08:48:24;;;;;;;4.65;2.97;;;;;;;;;;5056701;28;20452;-90
2022/06/15 08:50:54;;;;;;;3.38;2.80;;;;;;;;;;5040530;28;20969;-90
2022/06/15 08:53:24;;;;;;;5.28;3.00;;;;;;;;;;5055526;28;20409;-87
2022/06/15 08:55:55;;;;;;;5.03;3.42;;;;;;;;;;5056167;28;20810;-89
2022/06/15 08:58:25;;;;;;;3.88;3.00;;;;;;;;;;5055694;28;20382;-88
2022/06/15 09:00:53;;;;;;;7.93;3.30;;;;;;;;;;5054854;28;20424;-91
2022/06/15 09:03:38;;;;;;;3.20;2.63;;;;;;;;;;5056471;28;20381;-89
2022/06/15 09:06:27;;;;;;;3.42;2.70;;;;;;;;;;5055315;28;20443;-89
2022/06/15 09:09:09;;;;;;;3.67;2.90;;;;;;;;;;5042297;28;20406;-89
2022/06/15 09:11:52;;;;;;;3.35;2.85;;;;;;;;;;5036580;28;20378;-88
2022/06/15 09:14:24;;;;;;;4.00;2.80;;;;;;;;;;5050367;28;20390;-89
2022/06/15 09:16:56;;;;;;;3.60;2.75;;;;;;;;;;5044550;28;20839;-90
2022/06/15 09:19:43;;;;;;;3.65;2.67;;;;;;;;;;5056046;28;20374;-88
2022/06/15 09:22:11;;;;;;;3.53;2.40;;;;;;;;;;5056250;28;20471;-89
2022/06/15 09:24:38;;;;;;;5.05;2.42;;;;;;;;;;5040599;28;20880;-88
2022/06/15 09:27:12;;;;;;;4.60;3.00;;;;;;;;;;5047066;28;20466;-87
2022/06/15 09:29:39;;;;;;;5.18;2.92;;;;;;;;;;5037982;28;20385;-88
2022/06/15 09:32:08;;;;;;;4.90;2.77;;;;;;;;;;5048682;28;20887;-88
2022/06/15 09:34:38;;;;;;;2.83;2.42;;;;;;;;;;5051827;28;20738;-89
2022/06/15 09:37:09;;;;;;;4.27;3.07;;;;;;;;;;5048311;28;20381;-89
2022/06/15 09:39:36;;;;;;;3.38;2.67;;;;;;;;;;5056108;28;20377;-89
2022/06/15 09:42:02;;;;;;;4.30;2.60;;;;;;;;;;5055402;28;21020;-89
2022/06/15 09:44:31;;;;;;;3.07;2.77;;;;;;;;;;5056121;28;20397;-89
2022/06/15 09:47:00;;;;;;;4.22;2.78;;;;;;;;;;5056676;28;20378;-90
2022/06/15 09:49:26;;;;;;;3.38;2.30;;;;;;;;;;5042656;28;20391;-87
2022/06/15 09:52:01;;;;;;;4.90;2.70;;;;;;;;;;5036358;28;20415;-89
2022/06/15 09:54:35;;;;;;;2.90;2.42;;;;;;;;;;5035528;28;20378;-89
2022/06/15 09:57:01;;;;;;;4.93;2.78;;;;;;;;;;5041713;28;20388;-88
2022/06/15 09:59:33;;;;;;;4.05;2.70;;;;;;;;;;5038300;28;20384;-88
2022/06/15 10:01:59;;;;;;;4.65;2.90;;;;;;;;;;5043477;28;20397;-88
2022/06/15 10:04:27;;;;;;;5.77;2.90;;;;;;;;;;5053873;28;20393;-88
2022/06/15 10:06:59;;;;;;;4.40;3.10;;;;;;;;;;5054925;28;20389;-90
2022/06/15 10:09:29;;;;;;;4.23;2.67;;;;;;;;;;5040788;28;20384;-89
2022/06/15 10:12:55;;;;;;;2.97;2.60;;;;;;;;;;5054470;28;20420;-88
2022/06/15 10:14:43;;;;;;;4.68;3.90;;;;;;;;;;5053835;28;20408;-88
2022/06/15 10:17:22;;;;;;;5.88;3.78;;;;;;;;;;5049518;28;20851;-88
2022/06/15 10:19:50;;;;;;;6.95;2.97;;;;;;;;;;5053666;28;20418;-90
2022/06/15 10:22:25;;;;;;;5.13;3.88;;;;;;;;;;5042333;28;20474;-88
2022/06/15 10:24:51;;;;;;;7.22;5.40;;;;;;;;;;5053386;28;20386;-88
2022/06/15 10:27:28;;;;;;;4.15;3.00;;;;;;;;;;5053954;28;20389;-89
2022/06/15 10:29:57;;;;;;;4.47;2.92;;;;;;;;;;5054169;28;20377;-88
2022/06/15 10:32:23;;;;;;;4.83;2.30;;;;;;;;;;5054081;28;20412;-89
2022/06/15 10:34:51;;;;;;;3.88;2.45;;;;;;;;;;5051995;28;20750;-87
2022/06/15 10:37:22;;;;;;;2.63;2.05;;;;;;;;;;5044894;28;20373;-88
2022/06/15 10:39:50;;;;;;;3.67;2.20;;;;;;;;;;5054132;28;20374;-89
2022/06/15 10:42:19;;;;;;;2.50;2.30;;;;;;;;;;5053542;28;20464;-89
2022/06/15 10:44:53;;;;;;;2.88;2.55;;;;;;;;;;5039591;28;20379;-89
2022/06/15 10:47:27;;;;;;;2.95;1.90;;;;;;;;;;5053624;28;20476;-89
2022/06/15 10:49:59;;;;;;;2.45;1.85;;;;;;;;;;5053604;28;20580;-89
2022/06/15 10:52:54;;;;;;;4.18;1.90;;;;;;;;;;5039355;28;20441;-89
2022/06/15 11:04:19;;;;;;;2.13;1.90;;;;;;;;;;5049799;28;20381;-89
2022/06/15 11:06:48;;;;;;;3.53;2.10;;;;;;;;;;5053684;28;20444;-89
2022/06/15 11:09:21;;;;;;;4.47;2.70;;;;;;;;;;5052438;28;20393;-90
2022/06/15 11:11:48;;;;;;;3.10;2.33;;;;;;;;;;5052998;28;20392;-89
2022/06/15 11:14:22;;;;;;;3.90;2.38;;;;;;;;;;5052395;28;20859;-89
2022/06/15 11:19:37;;;;;;;2.85;2.00;;;;;;;;;;5049771;28;20931;-89
2022/06/15 11:22:08;;;;;;;3.05;2.00;;;;;;;;;;5044021;28;20448;-89
2022/06/15 11:24:53;;;;;;;2.27;1.80;;;;;;;;;;5034858;28;20375;-89
2022/06/15 11:27:28;;;;;;;4.28;1.85;;;;;;;;;;5053088;28;20894;-90
2022/06/15 11:30:04;;;;;;;3.72;1.85;;;;;;;;;;5051523;28;20389;-89
2022/06/15 11:32:36;;;;;;;3.00;1.85;;;;;;;;;;5052887;28;20397;-89
2022/06/15 11:35:05;;;;;;;2.17;1.70;;;;;;;;;;5053117;28;20435;-90
2022/06/15 11:37:55;;;;;;;4.27;2.10;;;;;;;;;;5044411;28;20873;-90
2022/06/15 11:40:25;;;;;;;3.00;2.00;;;;;;;;;;5030704;28;20453;-89
2022/06/15 11:42:51;;;;;;;2.67;1.80;;;;;;;;;;5057083;28;20458;-89
2022/06/15 11:45:19;;;;;;;2.10;1.67;;;;;;;;;;5037835;28;20387;-89
2022/06/15 11:47:45;;;;;;;2.92;1.98;;;;;;;;;;5047561;28;20392;-89
2022/06/15 11:50:30;;;;;;;2.53;1.77;;;;;;;;;;5056485;28;20381;-89
2022/06/15 11:53:11;;;;;;;2.80;2.00;;;;;;;;;;5045138;28;20495;-90
2022/06/15 11:55:37;;;;;;;3.03;1.80;;;;;;;;;;5052700;28;20385;-90
2022/06/15 11:58:21;;;;;;;4.07;2.00;;;;;;;;;;5055668;28;20390;-89
2022/06/15 12:01:07;;;;;;;3.40;2.20;;;;;;;;;;5038527;28;20379;-88
2022/06/15 12:03:52;;;;;;;2.70;2.00;;;;;;;;;;5056224;28;20472;-86
2022/06/15 12:06:27;;;;;;;3.80;1.90;;;;;;;;;;5055944;28;20472;-89
2022/06/15 12:08:59;;;;;;;3.97;1.90;;;;;;;;;;5056004;28;20456;-87
2022/06/15 12:14:15;;;;;;;2.40;1.95;;;;;;;;;;5056397;28;20464;-89
2022/06/15 12:17:00;;;;;;;3.33;1.80;;;;;;;;;;5054887;28;20373;-88
2022/06/15 12:19:26;;;;;;;2.58;1.90;;;;;;;;;;5056090;28;20777;-87
2022/06/15 12:21:59;;;;;;;2.92;1.80;;;;;;;;;;5056289;28;20460;-88
2022/06/15 12:24:29;;;;;;;2.42;1.67;;;;;;;;;;5055233;28;20401;-87
2022/06/15 12:27:02;;;;;;;2.13;1.70;;;;;;;;;;5043725;28;20382;-87
2022/06/15 12:29:44;;;;;;;5.05;1.80;;;;;;;;;;5055804;28;20435;-88
2022/06/15 12:35:13;;;;;;;3.40;1.92;;;;;;;;;;5052783;28;20418;-89
2022/06/15 12:37:48;;;;;;;4.57;1.80;;;;;;;;;;5039801;28;20465;-89
2022/06/15 12:40:24;;;;;;;3.13;1.70;;;;;;;;;;5055392;28;20370;-88
2022/06/15 12:42:52;;;;;;;2.80;1.90;;;;;;;;;;5055383;28;20381;-89
2022/06/15 12:45:22;;;;;;;2.95;1.70;;;;;;;;;;5055696;28;20381;-88
2022/06/15 12:47:56;;;;;;;2.90;1.70;;;;;;;;;;5044094;28;20394;-90
2022/06/15 12:50:33;;;;;;;3.05;1.60;;;;;;;;;;5052101;28;20382;-88
2022/06/15 12:53:06;;;;;;;2.42;1.70;;;;;;;;;;5045949;28;20415;-90
2022/06/15 12:55:33;;;;;;;2.20;1.52;;;;;;;;;;5050467;28;20465;-89
2022/06/15 12:57:59;;;;;;;5.20;3.10;;;;;;;;;;5055329;28;20409;-89
2022/06/15 13:00:33;;;;;;;4.05;2.58;;;;;;;;;;5055270;28;20397;-90
2022/06/15 13:03:02;;;;;;;3.53;1.70;;;;;;;;;;5028562;28;20439;-89
2022/06/15 13:05:35;;;;;;;2.28;1.67;;;;;;;;;;5053945;28;20755;-89
2022/06/15 13:08:22;;;;;;;2.30;1.73;;;;;;;;;;5053800;28;20860;-89
2022/06/15 13:10:54;;;;;;;2.75;1.98;;;;;;;;;;5053973;28;20431;-88
2022/06/15 13:13:25;;;;;;;3.40;1.67;;;;;;;;;;5049418;28;20500;-87
2022/06/15 13:15:51;;;;;;;4.50;1.80;;;;;;;;;;5034969;28;20382;-87
2022/06/15 13:18:19;;;;;;;4.60;1.80;;;;;;;;;;5054662;28;20432;-89
2022/06/15 13:20:48;;;;;;;3.97;1.70;;;;;;;;;;5054906;28;20396;-90
2022/06/15 13:23:23;;;;;;;3.72;1.80;;;;;;;;;;5055310;28;20985;-89
2022/06/15 13:26:09;;;;;;;3.67;1.88;;;;;;;;;;5055318;28;20381;-88
2022/06/15 13:29:01;;;;;;;3.45;2.15;;;;;;;;;;5055058;28;20875;-87
2022/06/15 13:31:43;;;;;;;2.97;2.00;;;;;;;;;;5054078;28;20398;-89
2022/06/15 13:34:10;;;;;;;2.67;1.77;;;;;;;;;;5054898;28;20424;-88
2022/06/15 13:36:37;;;;;;;3.58;1.98;;;;;;;;;;5046280;28;20477;-88
2022/06/15 13:39:38;;;;;;;3.45;1.60;;;;;;;;;;5053477;28;20411;-87
2022/06/15 13:42:21;;;;;;;2.55;1.50;;;;;;;;;;5052295;28;20386;-86
2022/06/15 13:44:51;;;;;;;5.55;1.80;;;;;;;;;;5054688;28;20468;-87
2022/06/15 13:47:18;;;;;;;3.78;1.90;;;;;;;;;;5055296;28;20381;-89
2022/06/15 13:49:45;;;;;;;3.25;2.10;;;;;;;;;;5053064;28;20895;-88
2022/06/15 13:52:14;;;;;;;5.03;1.70;;;;;;;;;;5054431;28;20401;-89
2022/06/15 13:54:55;;;;;;;3.05;1.60;;;;;;;;;;5036412;28;20386;-88
2022/06/15 13:57:39;;;;;;;3.45;2.00;;;;;;;;;;5030880;28;20455;-89
2022/06/15 14:00:18;;;;;;;3.45;1.65;;;;;;;;;;5044939;28;20407;-88
2022/06/15 14:02:57;;;;;;;2.78;2.00;;;;;;;;;;5054487;28;20464;-90
2022/06/15 14:05:52;;;;;;;4.70;2.05;;;;;;;;;;5054141;28;20451;-89
2022/06/15 14:08:30;;;;;;;4.10;1.90;;;;;;;;;;5053859;28;20370;-90
2022/06/15 14:11:15;;;;;;;4.88;1.83;;;;;;;;;;5040197;28;20383;-89
2022/06/15 14:13:47;;;;;;;4.15;2.17;;;;;;;;;;5038955;28;21132;-87
2022/06/15 14:16:31;;;;;;;2.80;1.63;;;;;;;;;;5027619;28;20392;-86
2022/06/15 14:19:06;;;;;;;3.08;1.90;;;;;;;;;;5029400;28;20391;-87
2022/06/15 14:21:36;;;;;;;4.40;2.50;;;;;;;;;;5047753;28;20876;-85
2022/06/15 14:24:19;;;;;;;5.60;3.22;;;;;;;;;;5031316;28;20473;-85
2022/06/15 14:26:47;;;;;;;3.85;2.35;;;;;;;;;;5039580;28;20381;-87
2022/06/15 14:29:13;;;;;;;3.22;2.10;;;;;;;;;;5043217;28;20923;-87
2022/06/15 14:31:39;;;;;;;3.42;2.35;;;;;;;;;;5038035;28;20447;-87
2022/06/15 14:34:13;;;;;;;5.70;2.80;;;;;;;;;;5052981;28;20405;-87
2022/06/15 14:36:47;;;;;;;3.90;2.30;;;;;;;;;;5044333;28;20477;-87
2022/06/15 14:39:17;;;;;;;3.55;2.00;;;;;;;;;;5052897;28;20385;-86
2022/06/15 14:41:44;;;;;;;2.70;1.98;;;;;;;;;;5052893;28;20374;-87
2022/06/15 14:44:24;;;;;;;3.55;1.73;;;;;;;;;;5051308;28;20951;-87
2022/06/15 14:46:55;;;;;;;2.20;1.85;;;;;;;;;;5052686;28;20381;-86
2022/06/15 14:49:30;;;;;;;3.95;1.83;;;;;;;;;;5052534;28;20370;-87
2022/06/15 14:52:13;;;;;;;6.95;2.65;;;;;;;;;;5034867;28;20394;-87
2022/06/15 14:54:40;;;;;;;3.88;2.30;;;;;;;;;;5031076;28;20371;-87
2022/06/15 14:57:06;;;;;;;4.27;2.40;;;;;;;;;;5031221;28;20440;-88
2022/06/15 14:59:44;;;;;;;5.63;2.80;;;;;;;;;;5032742;28;20379;-87
2022/06/15 15:02:10;;;;;;;4.63;2.15;;;;;;;;;;5031030;28;20375;-87
2022/06/15 15:04:41;;;;;;;3.45;1.92;;;;;;;;;;5033126;28;20449;-86
2022/06/15 15:10:06;;;;;;;2.75;1.92;;;;;;;;;;5030115;28;20728;-87
2022/06/15 15:12:42;;;;;;;3.08;1.90;;;;;;;;;;5032736;28;20471;-87
2022/06/15 15:15:08;;;;;;;2.83;1.83;;;;;;;;;;5012308;28;20889;-87
2022/06/15 15:17:54;;;;;;;3.38;1.98;;;;;;;;;;5012816;28;20381;-87
2022/06/15 15:20:31;;;;;;;2.92;1.67;;;;;;;;;;5013611;28;20742;-86
2022/06/15 15:22:57;;;;;;;3.22;1.83;;;;;;;;;;5018162;28;20399;-87
2022/06/15 15:25:23;;;;;;;3.15;1.73;;;;;;;;;;5012416;28;20389;-87
2022/06/15 15:36:10;;;;;;;2.60;1.88;;;;;;;;;;5031427;28;20375;-87